createdAt,value
2023-05-07T00:01:22.515Z,6.70
2023-05-07T00:03:49.705Z,6.43
2023-05-07T00:06:16.804Z,6.53
2023-05-07T00:08:43.874Z,6.90
2023-05-07T00:11:10.882Z,6.68
2023-05-07T00:13:37.694Z,6.88
2023-05-07T00:16:05.512Z,6.70
2023-05-07T00:18:32.720Z,6.10
2023-05-07T00:21:01.856Z,6.30
2023-05-07T00:23:28.772Z,6.28
2023-05-07T00:25:57.371Z,6.18
2023-05-07T00:28:26.649Z,5.90
2023-05-07T00:30:54.096Z,6.28
2023-05-07T00:33:21.962Z,5.88
2023-05-07T00:35:49.428Z,6.15
2023-05-07T00:38:16.711Z,6.53
2023-05-07T00:40:43.697Z,6.38
2023-05-07T00:43:10.622Z,5.70
2023-05-07T00:45:37.467Z,6.18
2023-05-07T00:48:06.836Z,7.03
2023-05-07T00:50:34.257Z,6.15
2023-05-07T00:53:01.676Z,6.40
2023-05-07T00:55:28.694Z,6.47
2023-05-07T00:57:55.839Z,6.43
2023-05-07T01:00:22.668Z,5.90
2023-05-07T01:02:49.738Z,5.88
2023-05-07T01:05:23.878Z,5.85
2023-05-07T01:07:53.961Z,5.90
2023-05-07T01:10:20.860Z,5.80
2023-05-07T01:12:49.706Z,5.85
2023-05-07T01:15:17.105Z,6.30
2023-05-07T01:17:45.679Z,6.45
2023-05-07T01:20:13.132Z,6.20
2023-05-07T01:22:40.950Z,5.80
2023-05-07T01:25:09.243Z,6.45
2023-05-07T01:27:38.097Z,6.05
2023-05-07T01:30:06.376Z,6.85
2023-05-07T01:32:44.254Z,6.63
2023-05-07T01:35:15.021Z,7.15
2023-05-07T01:37:42.679Z,6.38
2023-05-07T01:40:10.761Z,6.10
2023-05-07T01:42:38.261Z,6.70
2023-05-07T01:45:05.557Z,6.97
2023-05-07T01:47:33.346Z,6.45
2023-05-07T01:50:00.456Z,6.47
2023-05-07T01:52:28.948Z,6.60
2023-05-07T01:54:55.852Z,7.28
2023-05-07T01:57:22.758Z,7.10
2023-05-07T01:59:51.962Z,7.70
2023-05-07T02:02:18.834Z,7.38
2023-05-07T02:04:45.718Z,7.13
2023-05-07T02:07:12.371Z,7.53
2023-05-07T02:09:39.319Z,7.57
2023-05-07T02:12:06.605Z,8.07
2023-05-07T02:14:38.097Z,7.07
2023-05-07T02:17:10.834Z,8.25
2023-05-07T02:19:42.448Z,7.65
2023-05-07T02:22:11.064Z,7.40
2023-05-07T02:24:37.990Z,8.27
2023-05-07T02:27:07.232Z,8.75
2023-05-07T02:29:34.173Z,8.77
2023-05-07T02:32:01.070Z,8.25
2023-05-07T02:34:28.251Z,8.10
2023-05-07T02:36:57.761Z,9.00
2023-05-07T02:39:24.545Z,9.52
2023-05-07T02:41:51.117Z,9.05
2023-05-07T02:44:17.964Z,9.40
2023-05-07T02:46:44.911Z,10.18
2023-05-07T02:49:14.321Z,9.68
2023-05-07T02:51:41.174Z,9.25
2023-05-07T02:54:08.160Z,9.88
2023-05-07T02:56:35.064Z,9.77
2023-05-07T02:59:01.878Z,10.10
2023-05-07T03:01:28.799Z,10.40
2023-05-07T03:03:55.579Z,10.60
2023-05-07T03:06:22.712Z,10.80
2023-05-07T03:08:51.877Z,9.88
2023-05-07T03:11:18.943Z,9.80
2023-05-07T03:13:50.284Z,9.88
2023-05-07T03:16:17.444Z,10.00
2023-05-07T03:18:44.567Z,10.32
2023-05-07T03:21:14.005Z,10.13
2023-05-07T03:23:45.555Z,10.60
2023-05-07T03:26:14.555Z,10.05
2023-05-07T03:28:41.477Z,10.52
2023-05-07T03:31:10.729Z,10.77
2023-05-07T03:33:51.398Z,10.55
2023-05-07T03:36:18.345Z,11.35
2023-05-07T03:38:45.149Z,12.18
2023-05-07T03:41:12.119Z,11.25
2023-05-07T03:43:38.999Z,11.15
2023-05-07T03:46:05.968Z,12.27
2023-05-07T03:48:32.842Z,11.90
2023-05-07T03:51:00.426Z,12.55
2023-05-07T03:53:27.471Z,12.88
2023-05-07T03:55:54.289Z,11.23
2023-05-07T03:58:21.306Z,11.15
2023-05-07T04:00:51.007Z,12.25
2023-05-07T04:03:18.515Z,12.02
2023-05-07T04:05:48.157Z,11.85
2023-05-07T04:08:17.392Z,11.75
2023-05-07T04:10:44.405Z,12.85
2023-05-07T04:13:11.512Z,12.68
2023-05-07T04:15:38.371Z,12.23
2023-05-07T04:18:08.570Z,13.43
2023-05-07T04:20:37.965Z,12.95
2023-05-07T04:23:05.076Z,13.77
2023-05-07T04:25:32.653Z,13.63
2023-05-07T04:27:59.915Z,13.23
2023-05-07T04:30:27.506Z,14.48
2023-05-07T04:32:57.436Z,13.80
2023-05-07T04:35:24.504Z,14.27
2023-05-07T04:37:53.554Z,14.88
2023-05-07T04:40:21.158Z,14.45
2023-05-07T04:42:51.272Z,14.65
2023-05-07T04:45:18.960Z,15.25
2023-05-07T04:47:48.268Z,14.82
2023-05-07T04:50:18.945Z,16.58
2023-05-07T04:52:46.470Z,15.20
2023-05-07T04:55:16.046Z,16.17
2023-05-07T04:57:49.219Z,16.48
2023-05-07T05:00:36.201Z,15.55
2023-05-07T05:03:03.177Z,17.10
2023-05-07T05:05:32.337Z,17.33
2023-05-07T05:08:01.294Z,16.88
2023-05-07T05:10:28.109Z,16.98
2023-05-07T05:12:55.656Z,18.45
2023-05-07T05:15:34.163Z,18.25
2023-05-07T05:18:03.794Z,18.70
2023-05-07T05:20:33.440Z,19.08
2023-05-07T05:23:00.484Z,18.73
2023-05-07T05:25:27.213Z,18.75
2023-05-07T05:27:54.094Z,18.17
2023-05-07T05:30:22.494Z,20.08
2023-05-07T05:32:50.048Z,19.88
2023-05-07T05:35:16.923Z,19.35
2023-05-07T05:37:46.809Z,21.35
2023-05-07T05:40:18.384Z,20.70
2023-05-07T05:42:45.336Z,19.90
2023-05-07T05:45:12.323Z,20.38
2023-05-07T05:47:40.144Z,21.63
2023-05-07T05:50:26.093Z,20.75
2023-05-07T05:52:55.408Z,20.63
2023-05-07T05:55:23.279Z,20.35
2023-05-07T05:57:52.525Z,21.25
2023-05-07T06:00:19.903Z,21.40
2023-05-07T06:02:47.030Z,21.75
2023-05-07T06:05:13.966Z,21.40
2023-05-07T06:07:40.733Z,22.00
2023-05-07T06:10:08.158Z,21.80
2023-05-07T06:12:35.207Z,22.67
2023-05-07T06:15:02.690Z,21.83
2023-05-07T06:17:29.413Z,23.58
2023-05-07T06:19:56.210Z,23.58
2023-05-07T06:22:23.086Z,22.98
2023-05-07T06:24:49.727Z,23.33
2023-05-07T06:27:16.486Z,22.35
2023-05-07T06:30:14.164Z,23.10
2023-05-07T06:32:38.041Z,22.85
2023-05-07T06:35:05.387Z,22.55
2023-05-07T06:37:32.164Z,21.58
2023-05-07T06:40:01.090Z,22.60
2023-05-07T06:42:30.447Z,22.48
2023-05-07T06:44:57.179Z,22.38
2023-05-07T06:47:24.409Z,22.52
2023-05-07T06:49:53.333Z,22.23
2023-05-07T06:52:20.256Z,22.60
2023-05-07T06:54:49.475Z,22.08
2023-05-07T06:57:16.091Z,22.63
2023-05-07T06:59:42.847Z,22.42
2023-05-07T07:02:09.790Z,23.60
2023-05-07T07:04:39.807Z,23.33
2023-05-07T07:07:06.866Z,23.10
2023-05-07T07:09:35.947Z,23.08
2023-05-07T07:12:02.785Z,22.30
2023-05-07T07:14:29.447Z,22.05
2023-05-07T07:16:56.404Z,21.70
2023-05-07T07:19:23.148Z,22.15
2023-05-07T07:21:51.110Z,22.17
2023-05-07T07:24:22.077Z,21.98
2023-05-07T07:26:48.972Z,21.10
2023-05-07T07:29:15.692Z,21.20
2023-05-07T07:31:42.277Z,20.58
2023-05-07T07:34:08.999Z,21.50
2023-05-07T07:36:45.661Z,19.75
2023-05-07T07:39:16.072Z,21.27
2023-05-07T07:41:45.713Z,20.67
2023-05-07T07:44:16.022Z,19.30
2023-05-07T07:46:43.520Z,19.38
2023-05-07T07:49:10.382Z,20.42
2023-05-07T07:51:38.480Z,19.80
2023-05-07T07:54:05.434Z,18.98
2023-05-07T07:56:34.675Z,17.40
2023-05-07T07:59:02.027Z,21.35
2023-05-07T08:01:31.092Z,19.13
2023-05-07T08:04:00.014Z,18.02
2023-05-07T08:06:29.477Z,18.40
2023-05-07T08:08:56.321Z,18.88
2023-05-07T08:11:23.053Z,17.23
2023-05-07T08:13:50.030Z,17.63
2023-05-07T08:16:16.699Z,16.77
2023-05-07T08:18:46.035Z,17.55
2023-05-07T08:21:12.705Z,17.17
2023-05-07T08:23:41.787Z,16.58
2023-05-07T08:26:10.054Z,16.13
2023-05-07T08:28:36.762Z,15.68
2023-05-07T08:31:03.733Z,15.18
2023-05-07T08:33:32.559Z,15.45
2023-05-07T08:35:59.568Z,15.38
2023-05-07T08:38:28.618Z,15.07
2023-05-07T08:40:57.779Z,14.32
2023-05-07T08:43:28.325Z,13.35
2023-05-07T08:46:02.645Z,13.27
2023-05-07T08:48:31.200Z,13.10
2023-05-07T08:50:59.850Z,12.73
2023-05-07T08:53:26.792Z,13.30
2023-05-07T08:55:54.543Z,12.57
2023-05-07T08:58:21.332Z,12.82
2023-05-07T09:00:48.565Z,13.07
2023-05-07T09:03:15.496Z,13.35
2023-05-07T09:05:42.399Z,12.57
2023-05-07T09:08:09.334Z,13.48
2023-05-07T09:10:36.028Z,12.90
2023-05-07T09:13:04.852Z,13.68
2023-05-07T09:15:31.812Z,13.00
2023-05-07T09:18:04.967Z,11.93
2023-05-07T09:20:33.009Z,11.80
2023-05-07T09:22:59.803Z,11.30
2023-05-07T09:25:32.559Z,12.23
2023-05-07T09:28:00.083Z,12.45
2023-05-07T09:30:31.344Z,12.23
2023-05-07T09:33:00.809Z,13.27
2023-05-07T09:35:28.727Z,12.00
2023-05-07T09:37:58.065Z,13.25
2023-05-07T09:40:30.629Z,12.80
2023-05-07T09:42:57.495Z,12.73
2023-05-07T09:45:26.515Z,13.27
2023-05-07T09:47:58.881Z,12.95
2023-05-07T09:50:33.717Z,13.05
2023-05-07T09:53:01.021Z,12.48
2023-05-07T09:55:28.704Z,12.50
2023-05-07T10:00:38.779Z,12.45
2023-05-07T10:03:16.813Z,11.85
2023-05-07T10:05:45.685Z,12.32
2023-05-07T10:08:17.891Z,11.63
2023-05-07T10:10:55.939Z,11.25
2023-05-07T10:13:23.267Z,11.45
2023-05-07T10:15:54.374Z,11.32
2023-05-07T10:18:30.639Z,11.10
2023-05-07T10:21:03.833Z,11.52
2023-05-07T10:23:42.789Z,10.95
2023-05-07T10:26:10.555Z,10.73
2023-05-07T10:28:47.908Z,10.88
2023-05-07T10:31:51.362Z,11.35
2023-05-07T10:34:33.516Z,10.70
2023-05-07T10:37:01.038Z,11.07
2023-05-07T10:39:28.572Z,11.93
2023-05-07T10:41:55.346Z,12.35
2023-05-07T10:44:34.354Z,11.38
2023-05-07T10:47:10.376Z,12.25
2023-05-07T10:49:43.937Z,12.57
2023-05-07T10:52:27.888Z,12.02
2023-05-07T10:55:26.159Z,12.65
2023-05-07T10:57:52.976Z,11.88
2023-05-07T11:00:38.944Z,12.23
2023-05-07T11:03:08.112Z,11.57
2023-05-07T11:05:40.242Z,12.52
2023-05-07T11:08:07.393Z,12.73
2023-05-07T11:10:54.458Z,12.25
2023-05-07T11:13:44.165Z,11.63
2023-05-07T11:16:25.963Z,10.98
2023-05-07T11:18:57.409Z,10.95
2023-05-07T11:21:36.125Z,10.90
2023-05-07T11:24:06.690Z,11.00
2023-05-07T11:26:48.717Z,10.70
2023-05-07T11:29:23.866Z,10.43
2023-05-07T11:32:00.982Z,10.75
2023-05-07T11:34:28.711Z,10.70
2023-05-07T11:36:56.827Z,11.32
2023-05-07T11:39:28.492Z,10.98
2023-05-07T11:41:55.332Z,10.73
2023-05-07T11:44:21.948Z,10.40
2023-05-07T11:46:49.680Z,10.88
2023-05-07T11:49:16.866Z,10.55
2023-05-07T11:51:44.257Z,10.18
2023-05-07T11:54:12.474Z,10.18
2023-05-07T11:56:40.060Z,9.60
2023-05-07T11:59:07.449Z,9.20
2023-05-07T12:01:37.233Z,9.27
2023-05-07T12:04:06.439Z,9.43
2023-05-07T12:06:40.177Z,9.05
2023-05-07T12:09:12.597Z,8.70
2023-05-07T12:11:40.934Z,9.02
2023-05-07T12:14:09.486Z,8.38
2023-05-07T12:16:38.300Z,8.30
2023-05-07T12:19:10.615Z,8.30
2023-05-07T12:21:37.395Z,8.70
2023-05-07T12:24:04.459Z,8.70
2023-05-07T12:26:31.311Z,9.00
2023-05-07T12:29:04.644Z,8.10
2023-05-07T12:31:34.822Z,7.95
2023-05-07T12:34:07.203Z,7.50
2023-05-07T12:36:42.561Z,8.27
2023-05-07T12:39:09.870Z,8.23
2023-05-07T12:41:57.648Z,8.05
2023-05-07T12:44:41.381Z,7.43
2023-05-07T12:47:08.392Z,7.22
2023-05-07T12:49:38.851Z,7.45
2023-05-07T12:52:06.744Z,7.35
2023-05-07T12:54:34.997Z,8.00
2023-05-07T12:57:07.592Z,7.47
2023-05-07T12:59:44.954Z,6.85
2023-05-07T13:02:14.088Z,6.85
2023-05-07T13:04:40.830Z,7.75
2023-05-07T13:07:07.532Z,7.18
2023-05-07T13:09:34.491Z,6.70
2023-05-07T13:12:04.277Z,6.45
2023-05-07T13:14:33.407Z,6.30
2023-05-07T13:17:00.077Z,6.15
2023-05-07T13:19:28.046Z,6.03
2023-05-07T13:21:58.401Z,6.07
2023-05-07T13:24:25.284Z,5.35
2023-05-07T13:26:51.892Z,6.30
2023-05-07T13:29:18.613Z,5.97
2023-05-07T13:31:45.477Z,5.45
2023-05-07T13:34:12.600Z,6.00
2023-05-07T13:36:43.027Z,6.57
2023-05-07T13:39:10.174Z,7.75
2023-05-07T13:41:36.833Z,7.15
2023-05-07T13:44:04.789Z,7.75
2023-05-07T13:46:31.868Z,6.75
2023-05-07T13:48:58.655Z,7.40
2023-05-07T13:51:25.439Z,9.90
2023-05-07T13:53:53.586Z,8.80
2023-05-07T13:56:21.431Z,10.63
2023-05-07T13:58:58.977Z,8.00
2023-05-07T14:01:31.431Z,6.68
2023-05-07T14:04:04.077Z,8.07
2023-05-07T14:06:30.945Z,6.93
2023-05-07T14:08:59.205Z,6.47
2023-05-07T14:11:25.977Z,8.85
2023-05-07T14:13:54.818Z,6.45
2023-05-07T14:16:21.648Z,3.80
2023-05-07T14:18:48.786Z,3.38
2023-05-07T14:21:19.173Z,3.10
2023-05-07T14:23:45.831Z,3.63
2023-05-07T14:26:12.695Z,3.03
2023-05-07T14:28:40.754Z,3.20
2023-05-07T14:31:12.358Z,2.80
2023-05-07T14:33:41.763Z,2.50
2023-05-07T14:36:08.752Z,2.20
2023-05-07T14:38:35.705Z,3.70
2023-05-07T14:41:02.649Z,3.03
2023-05-07T14:43:29.749Z,2.00
2023-05-07T14:46:03.510Z,1.85
2023-05-07T14:48:30.279Z,1.77
2023-05-07T14:51:35.838Z,1.60
2023-05-07T14:54:03.028Z,1.60
2023-05-07T14:56:30.142Z,1.80
2023-05-07T14:58:59.257Z,1.70
2023-05-07T15:01:29.471Z,1.83
2023-05-07T15:03:56.497Z,1.75
2023-05-07T15:06:27.450Z,1.92
2023-05-07T15:08:54.228Z,2.20
2023-05-07T15:11:21.023Z,2.08
2023-05-07T15:13:49.833Z,2.55
2023-05-07T15:16:17.222Z,2.80
2023-05-07T15:18:46.810Z,2.67
2023-05-07T15:21:14.117Z,2.85
2023-05-07T15:23:42.774Z,2.70
2023-05-07T15:26:09.860Z,3.58
2023-05-07T15:28:40.419Z,3.67
2023-05-07T15:31:08.048Z,3.72
2023-05-07T15:33:38.091Z,4.20
2023-05-07T15:36:10.547Z,4.88
2023-05-07T15:38:37.418Z,5.28
2023-05-07T15:41:04.652Z,5.45
2023-05-07T15:43:31.458Z,5.80
2023-05-07T15:46:01.193Z,5.70
2023-05-07T15:48:28.466Z,5.65
2023-05-07T15:50:57.484Z,6.10
2023-05-07T15:53:25.900Z,6.00
2023-05-07T15:55:52.556Z,5.28
2023-05-07T15:58:21.274Z,5.30
2023-05-07T16:00:48.124Z,4.30
2023-05-07T16:03:15.108Z,4.63
2023-05-07T16:05:45.153Z,4.63
2023-05-07T16:08:11.894Z,4.80
2023-05-07T16:10:41.267Z,5.85
2023-05-07T16:13:10.552Z,4.93
2023-05-07T16:15:39.351Z,5.40
2023-05-07T16:18:06.114Z,4.53
2023-05-07T16:20:37.543Z,5.35
2023-05-07T16:23:04.464Z,5.68
2023-05-07T16:25:31.840Z,4.60
2023-05-07T16:27:58.449Z,5.15
2023-05-07T16:30:25.479Z,5.70
2023-05-07T16:32:54.689Z,4.60
2023-05-07T16:35:21.650Z,4.38
2023-05-07T16:37:48.327Z,3.50
2023-05-07T16:40:15.228Z,4.22
2023-05-07T16:42:44.897Z,3.97
2023-05-07T16:45:12.035Z,3.72
2023-05-07T16:47:38.880Z,3.10
2023-05-07T16:50:06.425Z,3.15
2023-05-07T16:52:33.235Z,2.63
2023-05-07T16:55:02.198Z,2.42
2023-05-07T16:57:34.359Z,2.78
2023-05-07T17:00:01.440Z,2.30
2023-05-07T17:02:30.334Z,2.20
2023-05-07T17:04:57.015Z,1.80
2023-05-07T17:07:26.842Z,1.83
2023-05-07T17:09:56.416Z,3.05
2023-05-07T17:12:23.102Z,2.40
2023-05-07T17:14:49.877Z,2.40
2023-05-07T17:17:16.604Z,2.42
2023-05-07T17:19:44.495Z,2.50
2023-05-07T17:22:11.442Z,2.45
2023-05-07T17:24:59.068Z,2.45
2023-05-07T17:27:25.854Z,2.35
2023-05-07T17:29:55.214Z,2.33
2023-05-07T17:32:24.596Z,2.33
2023-05-07T17:35:03.140Z,2.45
2023-05-07T17:37:30.118Z,2.25
2023-05-07T17:39:57.426Z,2.10
2023-05-07T17:42:34.930Z,1.90
2023-05-07T17:45:03.837Z,1.90
2023-05-07T17:47:30.581Z,1.90
2023-05-07T17:49:57.287Z,1.90
2023-05-07T17:52:24.347Z,1.90
2023-05-07T17:54:51.012Z,2.35
2023-05-07T17:57:18.288Z,2.88
2023-05-07T17:59:46.889Z,2.47
2023-05-07T18:02:14.126Z,2.80
2023-05-07T18:04:40.917Z,2.80
2023-05-07T18:07:07.672Z,2.97
2023-05-07T18:09:34.720Z,2.88
2023-05-07T18:12:02.130Z,3.20
2023-05-07T18:14:29.448Z,3.00
2023-05-07T18:16:56.148Z,3.53
2023-05-07T18:19:22.806Z,3.50
2023-05-07T18:21:49.624Z,3.60
2023-05-07T18:24:18.692Z,3.25
2023-05-07T18:26:49.174Z,3.53
2023-05-07T18:29:18.149Z,4.20
2023-05-07T18:31:44.949Z,3.97
2023-05-07T18:34:11.726Z,3.47
2023-05-07T18:36:38.423Z,4.43
2023-05-07T18:39:09.049Z,3.67
2023-05-07T18:41:36.278Z,4.13
2023-05-07T18:44:06.777Z,4.07
2023-05-07T18:46:33.983Z,4.10
2023-05-07T18:49:01.091Z,4.13
2023-05-07T18:51:27.919Z,4.13
2023-05-07T18:53:57.382Z,4.10
2023-05-07T18:56:24.608Z,4.63
2023-05-07T18:58:51.591Z,4.60
2023-05-07T19:01:18.336Z,4.70
2023-05-07T19:03:45.374Z,4.70
2023-05-07T19:06:12.509Z,3.83
2023-05-07T19:08:39.458Z,4.10
2023-05-07T19:11:06.794Z,4.15
2023-05-07T19:13:36.089Z,4.13
2023-05-07T19:16:03.671Z,3.63
2023-05-07T19:18:32.041Z,3.15
2023-05-07T19:21:01.360Z,3.15
2023-05-07T19:23:28.442Z,3.38
2023-05-07T19:25:55.559Z,3.15
2023-05-07T19:28:22.357Z,3.58
2023-05-07T19:30:49.982Z,3.92
2023-05-07T19:33:17.071Z,3.50
2023-05-07T19:35:48.821Z,3.40
2023-05-07T19:38:15.930Z,3.70
2023-05-07T19:40:43.084Z,3.53
2023-05-07T19:43:09.854Z,3.80
2023-05-07T19:45:37.816Z,4.05
2023-05-07T19:48:07.131Z,3.97
2023-05-07T19:50:33.974Z,3.85
2023-05-07T19:53:00.805Z,3.65
2023-05-07T19:55:27.751Z,3.38
2023-05-07T19:57:55.923Z,4.03
2023-05-07T20:00:27.202Z,3.95
2023-05-07T20:02:54.134Z,4.28
2023-05-07T20:05:23.636Z,4.15
2023-05-07T20:07:50.460Z,4.30
2023-05-07T20:10:19.670Z,4.30
2023-05-07T20:12:46.697Z,4.75
2023-05-07T20:15:13.661Z,4.45
2023-05-07T20:17:40.870Z,4.70
2023-05-07T20:20:11.592Z,4.57
2023-05-07T20:22:38.482Z,4.28
2023-05-07T20:25:06.472Z,4.93
2023-05-07T20:27:35.261Z,4.78
2023-05-07T20:30:02.168Z,4.20
2023-05-07T20:32:29.414Z,4.43
2023-05-07T20:34:56.423Z,4.60
2023-05-07T20:37:23.444Z,4.90
2023-05-07T20:39:50.410Z,4.90
2023-05-07T20:42:17.631Z,4.60
2023-05-07T20:44:44.841Z,4.47
2023-05-07T20:47:13.896Z,4.90
2023-05-07T20:49:43.881Z,5.10
2023-05-07T20:52:10.737Z,5.75
2023-05-07T20:54:40.379Z,5.32
2023-05-07T20:57:10.503Z,5.88
2023-05-07T20:59:40.291Z,5.30
2023-05-07T21:02:12.393Z,6.10
2023-05-07T21:04:39.233Z,5.28
2023-05-07T21:07:07.287Z,5.32
2023-05-07T21:09:36.405Z,5.60
2023-05-07T21:12:03.418Z,5.53
2023-05-07T21:14:30.403Z,5.82
2023-05-07T21:17:01.261Z,6.55
2023-05-07T21:19:28.797Z,6.18
2023-05-07T21:21:57.903Z,6.40
2023-05-07T21:24:25.648Z,6.80
2023-05-07T21:27:00.872Z,6.13
2023-05-07T21:29:27.814Z,6.35
2023-05-07T21:31:54.833Z,6.05
2023-05-07T21:34:21.996Z,6.00
2023-05-07T21:36:52.274Z,6.07
2023-05-07T21:39:19.229Z,6.00
2023-05-07T21:41:46.338Z,6.40
2023-05-07T21:44:15.605Z,6.10
2023-05-07T21:46:45.396Z,6.00
2023-05-07T21:49:12.428Z,6.60
2023-05-07T21:51:39.204Z,6.82
2023-05-07T21:54:07.317Z,6.65
2023-05-07T21:56:36.216Z,6.95
2023-05-07T21:59:03.124Z,7.40
2023-05-07T22:01:30.114Z,6.82
2023-05-07T22:03:57.359Z,6.95
2023-05-07T22:06:25.845Z,7.22
2023-05-07T22:08:54.922Z,7.00
2023-05-07T22:11:22.041Z,7.20
2023-05-07T22:13:49.028Z,7.47
2023-05-07T22:16:20.598Z,6.82
2023-05-07T22:18:49.830Z,7.18
2023-05-07T22:21:16.782Z,7.93
2023-05-07T22:23:43.701Z,7.47
2023-05-07T22:26:14.494Z,7.22
2023-05-07T22:28:41.477Z,7.57
2023-05-07T22:31:10.615Z,8.02
2023-05-07T22:33:37.801Z,7.97
2023-05-07T22:36:08.028Z,7.80
2023-05-07T22:38:35.187Z,7.80
2023-05-07T22:41:02.045Z,8.00
2023-05-07T22:43:29.325Z,7.72
2023-05-07T22:46:02.718Z,7.40
2023-05-07T22:48:30.020Z,7.78
2023-05-07T22:50:57.018Z,8.38
2023-05-07T22:53:23.968Z,7.68
2023-05-07T22:55:50.977Z,7.70
2023-05-07T22:58:20.491Z,8.10
2023-05-07T23:00:47.681Z,8.82
2023-05-07T23:03:14.557Z,8.85
2023-05-07T23:05:41.497Z,9.40
2023-05-07T23:08:08.732Z,8.95
2023-05-07T23:10:39.175Z,8.60
2023-05-07T23:13:06.387Z,8.65
2023-05-07T23:15:33.774Z,10.10
2023-05-07T23:18:00.647Z,9.50
2023-05-07T23:20:27.814Z,10.05
2023-05-07T23:22:55.206Z,10.05
2023-05-07T23:25:22.096Z,9.50
2023-05-07T23:27:51.492Z,9.43
2023-05-07T23:30:20.481Z,9.55
2023-05-07T23:32:47.315Z,9.52
2023-05-07T23:35:16.511Z,10.00
2023-05-07T23:37:43.871Z,9.88
2023-05-07T23:40:13.469Z,10.40
2023-05-07T23:42:40.736Z,10.18
2023-05-07T23:45:08.695Z,9.90
2023-05-07T23:47:35.924Z,9.88
2023-05-07T23:50:03.691Z,9.50
2023-05-07T23:52:30.654Z,9.75
2023-05-07T23:54:59.640Z,10.30
2023-05-07T23:57:29.241Z,10.15
2023-05-07T23:59:56.197Z,10.13
